Airport Name : Le Cannet

Other Name : Le Luc

ICAO : LFMC

IATA :

FAA :

Latitude : 43.384672

Longitude : 6.387139

Country : France

Local Date and Time : 19 Jan 2021 16:19

 

TAF (Terminal Aerodrome Forecast)

 

METAR (METeorological Aerodrome Report)

LFMC 191500Z AUTO 23007KT 190V260 9999 ////// 13/05 Q1022

LFMC 191430Z AUTO 23007KT 190V270 9999 ////// 13/03 Q1022

LFMC 191400Z AUTO 23005KT 160V280 9999 ////// 14/02 Q1022

LFMC 191330Z AUTO VRB03KT 9999 ////// 13/03 Q1022

LFMC 191300Z AUTO VRB02KT 9999 ////// 12/03 Q1023

LFMC 191230Z AUTO VRB01KT 9999 ////// 12/02 Q1023

LFMC 191200Z AUTO VRB03KT 9999 ////// 10/02 Q1024

LFMC 191130Z AUTO 00000KT 9999 ////// 10/01 Q1024

To Charter a Jet Click here.